sensor_id;sensor_type;location;lat;lon;timestamp;P1;durP1;ratioP1;P2;durP2;ratioP2
55037;SDS011;40937;53.594;10.034;2022-10-29T00:01:31;26.92;;;7.70;;
55037;SDS011;40937;53.594;10.034;2022-10-29T00:03:58;15.05;;;7.10;;
55037;SDS011;40937;53.594;10.034;2022-10-29T00:06:25;17.95;;;7.75;;
55037;SDS011;40937;53.594;10.034;2022-10-29T00:08:52;22.17;;;6.93;;
55037;SDS011;40937;53.594;10.034;2022-10-29T00:11:20;18.63;;;7.70;;
55037;SDS011;40937;53.594;10.034;2022-10-29T00:13:48;22.27;;;8.20;;
55037;SDS011;40937;53.594;10.034;2022-10-29T00:16:21;29.17;;;7.97;;
55037;SDS011;40937;53.594;10.034;2022-10-29T00:18:48;23.13;;;6.93;;
55037;SDS011;40937;53.594;10.034;2022-10-29T00:21:15;21.30;;;7.63;;
55037;SDS011;40937;53.594;10.034;2022-10-29T00:23:44;20.88;;;7.00;;
55037;SDS011;40937;53.594;10.034;2022-10-29T00:26:12;26.88;;;7.18;;
55037;SDS011;40937;53.594;10.034;2022-10-29T00:28:40;19.70;;;6.97;;
55037;SDS011;40937;53.594;10.034;2022-10-29T00:31:07;24.70;;;6.70;;
55037;SDS011;40937;53.594;10.034;2022-10-29T00:33:37;17.85;;;6.68;;
55037;SDS011;40937;53.594;10.034;2022-10-29T00:36:04;22.17;;;7.65;;
55037;SDS011;40937;53.594;10.034;2022-10-29T00:38:32;19.30;;;7.43;;
55037;SDS011;40937;53.594;10.034;2022-10-29T00:41:00;19.08;;;7.15;;
55037;SDS011;40937;53.594;10.034;2022-10-29T00:43:27;26.15;;;7.00;;
55037;SDS011;40937;53.594;10.034;2022-10-29T00:45:56;21.50;;;6.72;;
55037;SDS011;40937;53.594;10.034;2022-10-29T00:48:25;14.48;;;6.28;;
55037;SDS011;40937;53.594;10.034;2022-10-29T00:50:55;23.83;;;7.85;;
55037;SDS011;40937;53.594;10.034;2022-10-29T00:53:24;20.35;;;7.20;;
55037;SDS011;40937;53.594;10.034;2022-10-29T00:55:54;22.50;;;7.47;;
55037;SDS011;40937;53.594;10.034;2022-10-29T00:58:20;17.90;;;6.55;;
55037;SDS011;40937;53.594;10.034;2022-10-29T01:00:47;20.27;;;7.25;;
55037;SDS011;40937;53.594;10.034;2022-10-29T01:03:15;16.73;;;6.47;;
55037;SDS011;40937;53.594;10.034;2022-10-29T01:05:42;21.02;;;6.53;;
55037;SDS011;40937;53.594;10.034;2022-10-29T01:08:10;21.00;;;7.68;;
55037;SDS011;40937;53.594;10.034;2022-10-29T01:10:41;20.98;;;6.75;;
55037;SDS011;40937;53.594;10.034;2022-10-29T01:13:27;19.20;;;7.25;;
55037;SDS011;40937;53.594;10.034;2022-10-29T01:16:06;20.60;;;6.95;;
55037;SDS011;40937;53.594;10.034;2022-10-29T01:18:45;19.45;;;7.22;;
55037;SDS011;40937;53.594;10.034;2022-10-29T01:21:22;21.30;;;7.07;;
55037;SDS011;40937;53.594;10.034;2022-10-29T01:30:44;19.55;;;6.63;;
55037;SDS011;40937;53.594;10.034;2022-10-29T01:33:27;20.13;;;6.53;;
55037;SDS011;40937;53.594;10.034;2022-10-29T01:36:03;23.60;;;7.03;;
55037;SDS011;40937;53.594;10.034;2022-10-29T01:38:38;20.10;;;7.00;;
55037;SDS011;40937;53.594;10.034;2022-10-29T01:41:12;18.20;;;7.30;;
55037;SDS011;40937;53.594;10.034;2022-10-29T01:46:16;28.55;;;7.93;;
55037;SDS011;40937;53.594;10.034;2022-10-29T01:48:47;16.45;;;6.45;;
55037;SDS011;40937;53.594;10.034;2022-10-29T01:51:18;20.95;;;7.32;;
55037;SDS011;40937;53.594;10.034;2022-10-29T01:53:47;16.95;;;6.93;;
55037;SDS011;40937;53.594;10.034;2022-10-29T01:56:14;22.40;;;7.20;;
55037;SDS011;40937;53.594;10.034;2022-10-29T01:58:42;19.95;;;6.82;;
55037;SDS011;40937;53.594;10.034;2022-10-29T02:01:15;22.85;;;6.85;;
55037;SDS011;40937;53.594;10.034;2022-10-29T02:03:55;18.08;;;6.60;;
55037;SDS011;40937;53.594;10.034;2022-10-29T02:09:03;23.02;;;6.75;;
55037;SDS011;40937;53.594;10.034;2022-10-29T02:11:38;27.30;;;7.53;;
55037;SDS011;40937;53.594;10.034;2022-10-29T02:14:14;23.40;;;7.68;;
55037;SDS011;40937;53.594;10.034;2022-10-29T02:16:47;26.70;;;7.68;;
55037;SDS011;40937;53.594;10.034;2022-10-29T02:19:16;19.73;;;6.88;;
55037;SDS011;40937;53.594;10.034;2022-10-29T02:21:42;26.17;;;6.68;;
55037;SDS011;40937;53.594;10.034;2022-10-29T02:24:09;21.13;;;7.45;;
55037;SDS011;40937;53.594;10.034;2022-10-29T02:26:36;19.90;;;7.32;;
55037;SDS011;40937;53.594;10.034;2022-10-29T02:29:02;26.13;;;7.55;;
55037;SDS011;40937;53.594;10.034;2022-10-29T02:31:29;21.27;;;6.95;;
55037;SDS011;40937;53.594;10.034;2022-10-29T02:33:57;23.02;;;7.32;;
55037;SDS011;40937;53.594;10.034;2022-10-29T02:36:23;23.38;;;7.47;;
55037;SDS011;40937;53.594;10.034;2022-10-29T02:38:50;23.20;;;7.65;;
55037;SDS011;40937;53.594;10.034;2022-10-29T02:41:17;20.70;;;7.78;;
55037;SDS011;40937;53.594;10.034;2022-10-29T02:43:43;21.17;;;7.93;;
55037;SDS011;40937;53.594;10.034;2022-10-29T02:46:10;23.35;;;7.13;;
55037;SDS011;40937;53.594;10.034;2022-10-29T02:48:38;20.73;;;7.68;;
55037;SDS011;40937;53.594;10.034;2022-10-29T02:51:06;22.65;;;7.35;;
55037;SDS011;40937;53.594;10.034;2022-10-29T02:53:33;21.92;;;7.35;;
55037;SDS011;40937;53.594;10.034;2022-10-29T02:55:59;22.48;;;7.95;;
55037;SDS011;40937;53.594;10.034;2022-10-29T02:58:26;18.83;;;7.95;;
55037;SDS011;40937;53.594;10.034;2022-10-29T03:00:52;28.67;;;8.23;;
55037;SDS011;40937;53.594;10.034;2022-10-29T03:03:19;24.50;;;7.60;;
55037;SDS011;40937;53.594;10.034;2022-10-29T03:05:46;20.42;;;7.40;;
55037;SDS011;40937;53.594;10.034;2022-10-29T03:08:14;20.67;;;7.53;;
55037;SDS011;40937;53.594;10.034;2022-10-29T03:10:40;23.77;;;7.65;;
55037;SDS011;40937;53.594;10.034;2022-10-29T03:13:07;24.00;;;8.45;;
55037;SDS011;40937;53.594;10.034;2022-10-29T03:15:34;24.70;;;8.43;;
55037;SDS011;40937;53.594;10.034;2022-10-29T03:18:01;22.98;;;7.47;;
55037;SDS011;40937;53.594;10.034;2022-10-29T03:20:28;19.20;;;8.00;;
55037;SDS011;40937;53.594;10.034;2022-10-29T03:22:54;20.70;;;8.18;;
55037;SDS011;40937;53.594;10.034;2022-10-29T03:25:22;22.98;;;8.13;;
55037;SDS011;40937;53.594;10.034;2022-10-29T03:27:49;23.58;;;8.45;;
55037;SDS011;40937;53.594;10.034;2022-10-29T03:30:16;27.10;;;9.02;;
55037;SDS011;40937;53.594;10.034;2022-10-29T03:32:43;26.80;;;7.53;;
55037;SDS011;40937;53.594;10.034;2022-10-29T03:35:11;20.73;;;7.43;;
55037;SDS011;40937;53.594;10.034;2022-10-29T03:37:39;21.67;;;8.05;;
55037;SDS011;40937;53.594;10.034;2022-10-29T03:40:06;26.98;;;9.75;;
55037;SDS011;40937;53.594;10.034;2022-10-29T03:42:35;21.13;;;8.82;;
55037;SDS011;40937;53.594;10.034;2022-10-29T03:45:03;23.80;;;7.68;;
55037;SDS011;40937;53.594;10.034;2022-10-29T03:47:31;25.20;;;9.48;;
55037;SDS011;40937;53.594;10.034;2022-10-29T03:49:58;26.85;;;9.30;;
55037;SDS011;40937;53.594;10.034;2022-10-29T03:52:25;22.95;;;10.07;;
55037;SDS011;40937;53.594;10.034;2022-10-29T03:54:51;21.23;;;9.13;;
55037;SDS011;40937;53.594;10.034;2022-10-29T03:57:18;28.42;;;9.45;;
55037;SDS011;40937;53.594;10.034;2022-10-29T03:59:46;19.83;;;8.98;;
55037;SDS011;40937;53.594;10.034;2022-10-29T04:02:13;26.08;;;9.50;;
55037;SDS011;40937;53.594;10.034;2022-10-29T04:04:40;27.13;;;8.93;;
55037;SDS011;40937;53.594;10.034;2022-10-29T04:07:06;19.73;;;8.70;;
55037;SDS011;40937;53.594;10.034;2022-10-29T04:09:33;23.92;;;9.10;;
55037;SDS011;40937;53.594;10.034;2022-10-29T04:11:59;24.15;;;9.77;;
55037;SDS011;40937;53.594;10.034;2022-10-29T04:14:27;22.02;;;8.75;;
55037;SDS011;40937;53.594;10.034;2022-10-29T04:16:56;21.33;;;9.60;;
55037;SDS011;40937;53.594;10.034;2022-10-29T04:19:22;22.88;;;9.10;;
55037;SDS011;40937;53.594;10.034;2022-10-29T04:21:49;23.95;;;9.45;;
55037;SDS011;40937;53.594;10.034;2022-10-29T04:24:15;25.85;;;9.45;;
55037;SDS011;40937;53.594;10.034;2022-10-29T04:26:42;28.80;;;8.80;;
55037;SDS011;40937;53.594;10.034;2022-10-29T04:29:09;22.73;;;9.05;;
55037;SDS011;40937;53.594;10.034;2022-10-29T04:31:36;26.23;;;9.65;;
55037;SDS011;40937;53.594;10.034;2022-10-29T04:34:04;33.55;;;9.68;;
55037;SDS011;40937;53.594;10.034;2022-10-29T04:36:31;28.13;;;10.05;;
55037;SDS011;40937;53.594;10.034;2022-10-29T04:38:57;27.27;;;9.05;;
55037;SDS011;40937;53.594;10.034;2022-10-29T04:41:24;27.17;;;9.98;;
55037;SDS011;40937;53.594;10.034;2022-10-29T04:43:50;30.35;;;10.52;;
55037;SDS011;40937;53.594;10.034;2022-10-29T04:46:17;24.85;;;9.55;;
55037;SDS011;40937;53.594;10.034;2022-10-29T04:48:43;28.27;;;10.20;;
55037;SDS011;40937;53.594;10.034;2022-10-29T04:51:17;18.90;;;9.02;;
55037;SDS011;40937;53.594;10.034;2022-10-29T04:53:44;21.95;;;9.32;;
55037;SDS011;40937;53.594;10.034;2022-10-29T04:56:11;25.48;;;9.80;;
55037;SDS011;40937;53.594;10.034;2022-10-29T04:58:38;23.35;;;9.93;;
55037;SDS011;40937;53.594;10.034;2022-10-29T05:01:04;32.22;;;10.73;;
55037;SDS011;40937;53.594;10.034;2022-10-29T05:03:31;25.40;;;10.05;;
55037;SDS011;40937;53.594;10.034;2022-10-29T05:05:58;22.40;;;10.10;;
55037;SDS011;40937;53.594;10.034;2022-10-29T05:08:28;27.58;;;9.30;;
55037;SDS011;40937;53.594;10.034;2022-10-29T05:10:55;23.63;;;8.43;;
55037;SDS011;40937;53.594;10.034;2022-10-29T05:13:21;25.52;;;10.05;;
55037;SDS011;40937;53.594;10.034;2022-10-29T05:15:48;23.20;;;9.90;;
55037;SDS011;40937;53.594;10.034;2022-10-29T05:18:16;21.80;;;9.10;;
55037;SDS011;40937;53.594;10.034;2022-10-29T05:20:43;23.00;;;9.43;;
55037;SDS011;40937;53.594;10.034;2022-10-29T05:23:10;22.40;;;9.45;;
55037;SDS011;40937;53.594;10.034;2022-10-29T05:25:39;23.67;;;9.75;;
55037;SDS011;40937;53.594;10.034;2022-10-29T05:28:08;21.80;;;9.27;;
55037;SDS011;40937;53.594;10.034;2022-10-29T05:30:37;17.92;;;8.80;;
55037;SDS011;40937;53.594;10.034;2022-10-29T05:33:05;23.75;;;9.43;;
55037;SDS011;40937;53.594;10.034;2022-10-29T05:35:32;23.38;;;9.88;;
55037;SDS011;40937;53.594;10.034;2022-10-29T05:37:58;21.20;;;9.02;;
55037;SDS011;40937;53.594;10.034;2022-10-29T05:40:25;23.88;;;9.25;;
55037;SDS011;40937;53.594;10.034;2022-10-29T05:42:53;17.90;;;9.43;;
55037;SDS011;40937;53.594;10.034;2022-10-29T05:45:20;23.25;;;9.60;;
55037;SDS011;40937;53.594;10.034;2022-10-29T05:47:46;22.52;;;8.98;;
55037;SDS011;40937;53.594;10.034;2022-10-29T05:50:13;22.15;;;9.77;;
55037;SDS011;40937;53.594;10.034;2022-10-29T05:52:40;25.08;;;9.20;;
55037;SDS011;40937;53.594;10.034;2022-10-29T05:55:07;21.88;;;9.73;;
55037;SDS011;40937;53.594;10.034;2022-10-29T05:57:34;21.35;;;9.00;;
55037;SDS011;40937;53.594;10.034;2022-10-29T06:00:02;26.33;;;10.40;;
55037;SDS011;40937;53.594;10.034;2022-10-29T06:02:37;22.15;;;9.73;;
55037;SDS011;40937;53.594;10.034;2022-10-29T06:05:04;23.92;;;10.10;;
55037;SDS011;40937;53.594;10.034;2022-10-29T06:07:31;20.10;;;9.43;;
55037;SDS011;40937;53.594;10.034;2022-10-29T06:09:57;26.80;;;11.55;;
55037;SDS011;40937;53.594;10.034;2022-10-29T06:12:24;19.52;;;9.70;;
55037;SDS011;40937;53.594;10.034;2022-10-29T06:14:50;31.27;;;10.40;;
55037;SDS011;40937;53.594;10.034;2022-10-29T06:17:18;22.15;;;10.20;;
55037;SDS011;40937;53.594;10.034;2022-10-29T06:19:45;24.40;;;10.32;;
55037;SDS011;40937;53.594;10.034;2022-10-29T06:22:11;27.67;;;10.90;;
55037;SDS011;40937;53.594;10.034;2022-10-29T06:24:38;27.20;;;10.73;;
55037;SDS011;40937;53.594;10.034;2022-10-29T06:27:04;23.45;;;9.68;;
55037;SDS011;40937;53.594;10.034;2022-10-29T06:29:31;21.55;;;10.63;;
55037;SDS011;40937;53.594;10.034;2022-10-29T06:31:58;26.88;;;11.25;;
55037;SDS011;40937;53.594;10.034;2022-10-29T06:34:26;25.35;;;10.32;;
55037;SDS011;40937;53.594;10.034;2022-10-29T06:36:52;23.42;;;11.27;;
55037;SDS011;40937;53.594;10.034;2022-10-29T06:39:20;22.52;;;10.02;;
55037;SDS011;40937;53.594;10.034;2022-10-29T06:41:47;26.63;;;10.15;;
55037;SDS011;40937;53.594;10.034;2022-10-29T06:44:17;17.75;;;9.65;;
55037;SDS011;40937;53.594;10.034;2022-10-29T06:46:43;24.27;;;10.02;;
55037;SDS011;40937;53.594;10.034;2022-10-29T06:49:10;23.23;;;9.77;;
55037;SDS011;40937;53.594;10.034;2022-10-29T06:51:38;23.92;;;9.38;;
55037;SDS011;40937;53.594;10.034;2022-10-29T06:54:04;20.00;;;9.85;;
55037;SDS011;40937;53.594;10.034;2022-10-29T06:56:31;21.70;;;9.52;;
55037;SDS011;40937;53.594;10.034;2022-10-29T06:58:58;21.10;;;10.10;;
55037;SDS011;40937;53.594;10.034;2022-10-29T07:01:25;18.40;;;9.05;;
55037;SDS011;40937;53.594;10.034;2022-10-29T07:03:53;24.52;;;9.68;;
55037;SDS011;40937;53.594;10.034;2022-10-29T07:06:19;22.70;;;10.10;;
55037;SDS011;40937;53.594;10.034;2022-10-29T07:08:47;26.33;;;10.45;;
55037;SDS011;40937;53.594;10.034;2022-10-29T07:11:14;16.77;;;8.95;;
55037;SDS011;40937;53.594;10.034;2022-10-29T07:13:40;18.23;;;9.93;;
55037;SDS011;40937;53.594;10.034;2022-10-29T07:16:07;30.15;;;16.77;;
55037;SDS011;40937;53.594;10.034;2022-10-29T07:18:34;17.52;;;11.18;;
55037;SDS011;40937;53.594;10.034;2022-10-29T07:21:01;20.05;;;10.35;;
55037;SDS011;40937;53.594;10.034;2022-10-29T07:23:28;22.83;;;11.15;;
55037;SDS011;40937;53.594;10.034;2022-10-29T07:25:57;20.15;;;9.38;;
55037;SDS011;40937;53.594;10.034;2022-10-29T07:28:23;19.20;;;9.50;;
55037;SDS011;40937;53.594;10.034;2022-10-29T07:30:50;25.80;;;10.43;;
55037;SDS011;40937;53.594;10.034;2022-10-29T07:33:17;22.70;;;10.38;;
55037;SDS011;40937;53.594;10.034;2022-10-29T07:35:44;23.60;;;9.88;;
55037;SDS011;40937;53.594;10.034;2022-10-29T07:38:11;26.02;;;13.10;;
55037;SDS011;40937;53.594;10.034;2022-10-29T07:40:39;28.05;;;11.00;;
55037;SDS011;40937;53.594;10.034;2022-10-29T07:45:39;29.63;;;17.00;;
55037;SDS011;40937;53.594;10.034;2022-10-29T07:48:07;29.52;;;18.27;;
55037;SDS011;40937;53.594;10.034;2022-10-29T07:50:35;27.60;;;18.80;;
55037;SDS011;40937;53.594;10.034;2022-10-29T07:53:03;29.27;;;18.70;;
55037;SDS011;40937;53.594;10.034;2022-10-29T07:55:30;26.08;;;18.48;;
55037;SDS011;40937;53.594;10.034;2022-10-29T07:57:57;29.23;;;21.23;;
55037;SDS011;40937;53.594;10.034;2022-10-29T08:00:27;32.33;;;19.67;;
55037;SDS011;40937;53.594;10.034;2022-10-29T08:02:55;25.83;;;19.15;;
55037;SDS011;40937;53.594;10.034;2022-10-29T08:05:22;31.35;;;20.10;;
55037;SDS011;40937;53.594;10.034;2022-10-29T08:07:51;32.83;;;21.20;;
55037;SDS011;40937;53.594;10.034;2022-10-29T08:10:18;28.13;;;20.33;;
55037;SDS011;40937;53.594;10.034;2022-10-29T08:12:48;26.95;;;19.83;;
55037;SDS011;40937;53.594;10.034;2022-10-29T08:15:15;24.55;;;18.45;;
55037;SDS011;40937;53.594;10.034;2022-10-29T08:17:43;25.15;;;18.45;;
55037;SDS011;40937;53.594;10.034;2022-10-29T08:20:11;25.85;;;18.48;;
55037;SDS011;40937;53.594;10.034;2022-10-29T08:22:38;26.05;;;17.40;;
55037;SDS011;40937;53.594;10.034;2022-10-29T08:25:04;23.50;;;17.52;;
55037;SDS011;40937;53.594;10.034;2022-10-29T08:27:31;22.75;;;17.25;;
55037;SDS011;40937;53.594;10.034;2022-10-29T08:29:58;25.83;;;17.38;;
55037;SDS011;40937;53.594;10.034;2022-10-29T08:32:24;26.23;;;16.63;;
55037;SDS011;40937;53.594;10.034;2022-10-29T08:34:52;23.70;;;17.00;;
55037;SDS011;40937;53.594;10.034;2022-10-29T08:37:20;29.17;;;17.70;;
55037;SDS011;40937;53.594;10.034;2022-10-29T08:39:46;25.42;;;16.50;;
55037;SDS011;40937;53.594;10.034;2022-10-29T08:42:16;26.52;;;16.80;;
55037;SDS011;40937;53.594;10.034;2022-10-29T08:44:56;25.60;;;17.65;;
55037;SDS011;40937;53.594;10.034;2022-10-29T08:47:44;25.80;;;18.40;;
55037;SDS011;40937;53.594;10.034;2022-10-29T08:50:26;26.35;;;18.48;;
55037;SDS011;40937;53.594;10.034;2022-10-29T08:52:55;32.00;;;19.43;;
55037;SDS011;40937;53.594;10.034;2022-10-29T08:55:32;27.60;;;20.80;;
55037;SDS011;40937;53.594;10.034;2022-10-29T08:58:02;44.65;;;22.40;;
55037;SDS011;40937;53.594;10.034;2022-10-29T09:00:38;32.47;;;21.45;;
55037;SDS011;40937;53.594;10.034;2022-10-29T09:03:08;36.83;;;23.05;;
55037;SDS011;40937;53.594;10.034;2022-10-29T09:05:41;28.60;;;23.10;;
55037;SDS011;40937;53.594;10.034;2022-10-29T09:08:20;33.33;;;22.90;;
55037;SDS011;40937;53.594;10.034;2022-10-29T09:10:54;35.20;;;23.40;;
55037;SDS011;40937;53.594;10.034;2022-10-29T09:13:25;30.50;;;23.77;;
55037;SDS011;40937;53.594;10.034;2022-10-29T09:16:07;28.77;;;22.13;;
55037;SDS011;40937;53.594;10.034;2022-10-29T09:18:47;31.27;;;23.08;;
55037;SDS011;40937;53.594;10.034;2022-10-29T09:21:27;34.90;;;24.17;;
55037;SDS011;40937;53.594;10.034;2022-10-29T09:24:03;33.88;;;24.00;;
55037;SDS011;40937;53.594;10.034;2022-10-29T09:26:41;36.00;;;24.20;;
55037;SDS011;40937;53.594;10.034;2022-10-29T09:32:04;36.03;;;24.90;;
55037;SDS011;40937;53.594;10.034;2022-10-29T09:34:38;36.67;;;25.40;;
55037;SDS011;40937;53.594;10.034;2022-10-29T09:37:12;40.88;;;24.23;;
55037;SDS011;40937;53.594;10.034;2022-10-29T09:39:41;34.60;;;24.33;;
55037;SDS011;40937;53.594;10.034;2022-10-29T09:42:12;36.55;;;24.38;;
55037;SDS011;40937;53.594;10.034;2022-10-29T09:44:42;43.30;;;25.77;;
55037;SDS011;40937;53.594;10.034;2022-10-29T09:47:16;36.47;;;26.95;;
55037;SDS011;40937;53.594;10.034;2022-10-29T09:49:52;35.78;;;26.10;;
55037;SDS011;40937;53.594;10.034;2022-10-29T09:52:29;35.10;;;24.52;;
55037;SDS011;40937;53.594;10.034;2022-10-29T09:54:59;29.70;;;23.90;;
55037;SDS011;40937;53.594;10.034;2022-10-29T09:57:28;33.08;;;24.55;;
55037;SDS011;40937;53.594;10.034;2022-10-29T09:59:57;38.25;;;25.75;;
55037;SDS011;40937;53.594;10.034;2022-10-29T10:02:28;41.67;;;27.13;;
55037;SDS011;40937;53.594;10.034;2022-10-29T10:05:00;37.83;;;26.85;;
55037;SDS011;40937;53.594;10.034;2022-10-29T10:07:32;40.70;;;26.52;;
55037;SDS011;40937;53.594;10.034;2022-10-29T10:09:59;43.80;;;28.35;;
55037;SDS011;40937;53.594;10.034;2022-10-29T10:12:27;36.92;;;26.30;;
55037;SDS011;40937;53.594;10.034;2022-10-29T10:15:16;39.25;;;26.67;;
55037;SDS011;40937;53.594;10.034;2022-10-29T10:17:51;36.03;;;25.63;;
55037;SDS011;40937;53.594;10.034;2022-10-29T10:20:36;38.28;;;26.88;;
55037;SDS011;40937;53.594;10.034;2022-10-29T10:23:22;37.60;;;27.38;;
55037;SDS011;40937;53.594;10.034;2022-10-29T10:25:51;36.58;;;26.88;;
55037;SDS011;40937;53.594;10.034;2022-10-29T10:28:19;35.67;;;27.05;;
55037;SDS011;40937;53.594;10.034;2022-10-29T10:31:04;32.65;;;25.10;;
55037;SDS011;40937;53.594;10.034;2022-10-29T10:33:33;38.35;;;25.15;;
55037;SDS011;40937;53.594;10.034;2022-10-29T10:36:02;29.88;;;25.02;;
55037;SDS011;40937;53.594;10.034;2022-10-29T10:38:39;31.88;;;23.17;;
55037;SDS011;40937;53.594;10.034;2022-10-29T10:41:09;31.10;;;22.45;;
55037;SDS011;40937;53.594;10.034;2022-10-29T10:43:40;35.60;;;24.80;;
55037;SDS011;40937;53.594;10.034;2022-10-29T10:46:10;29.13;;;22.77;;
55037;SDS011;40937;53.594;10.034;2022-10-29T10:48:41;32.08;;;22.25;;
55037;SDS011;40937;53.594;10.034;2022-10-29T10:51:08;34.38;;;22.05;;
55037;SDS011;40937;53.594;10.034;2022-10-29T10:53:41;30.17;;;21.80;;
55037;SDS011;40937;53.594;10.034;2022-10-29T10:56:13;32.70;;;21.15;;
55037;SDS011;40937;53.594;10.034;2022-10-29T10:58:44;29.15;;;21.90;;
55037;SDS011;40937;53.594;10.034;2022-10-29T11:01:17;29.60;;;20.02;;
55037;SDS011;40937;53.594;10.034;2022-10-29T11:03:49;26.77;;;18.35;;
55037;SDS011;40937;53.594;10.034;2022-10-29T11:06:24;28.73;;;19.35;;
55037;SDS011;40937;53.594;10.034;2022-10-29T11:09:00;24.52;;;18.52;;
55037;SDS011;40937;53.594;10.034;2022-10-29T11:11:32;25.50;;;18.13;;
55037;SDS011;40937;53.594;10.034;2022-10-29T11:14:04;26.45;;;18.63;;
55037;SDS011;40937;53.594;10.034;2022-10-29T11:16:36;30.77;;;18.98;;
55037;SDS011;40937;53.594;10.034;2022-10-29T11:19:09;26.65;;;17.17;;
55037;SDS011;40937;53.594;10.034;2022-10-29T11:21:42;27.77;;;16.17;;
55037;SDS011;40937;53.594;10.034;2022-10-29T11:24:23;26.98;;;16.77;;
55037;SDS011;40937;53.594;10.034;2022-10-29T11:26:58;24.15;;;15.93;;
55037;SDS011;40937;53.594;10.034;2022-10-29T11:29:30;29.20;;;16.42;;
55037;SDS011;40937;53.594;10.034;2022-10-29T11:32:07;25.88;;;15.90;;
55037;SDS011;40937;53.594;10.034;2022-10-29T11:34:42;26.98;;;14.63;;
55037;SDS011;40937;53.594;10.034;2022-10-29T11:37:19;22.38;;;14.02;;
55037;SDS011;40937;53.594;10.034;2022-10-29T11:39:53;20.92;;;14.13;;
55037;SDS011;40937;53.594;10.034;2022-10-29T11:42:22;25.42;;;13.77;;
55037;SDS011;40937;53.594;10.034;2022-10-29T11:44:50;25.83;;;14.70;;
55037;SDS011;40937;53.594;10.034;2022-10-29T11:47:20;26.42;;;14.02;;
55037;SDS011;40937;53.594;10.034;2022-10-29T11:50:01;23.45;;;14.75;;
55037;SDS011;40937;53.594;10.034;2022-10-29T11:52:39;29.00;;;15.70;;
55037;SDS011;40937;53.594;10.034;2022-10-29T11:55:18;31.27;;;14.32;;
55037;SDS011;40937;53.594;10.034;2022-10-29T11:57:51;22.95;;;12.75;;
55037;SDS011;40937;53.594;10.034;2022-10-29T12:00:21;31.80;;;13.32;;
55037;SDS011;40937;53.594;10.034;2022-10-29T12:05:56;23.20;;;12.05;;
55037;SDS011;40937;53.594;10.034;2022-10-29T12:08:34;63.63;;;12.40;;
55037;SDS011;40937;53.594;10.034;2022-10-29T12:11:12;35.80;;;13.48;;
55037;SDS011;40937;53.594;10.034;2022-10-29T12:13:50;24.23;;;11.95;;
55037;SDS011;40937;53.594;10.034;2022-10-29T12:16:26;26.27;;;13.02;;
55037;SDS011;40937;53.594;10.034;2022-10-29T12:19:02;21.27;;;11.75;;
55037;SDS011;40937;53.594;10.034;2022-10-29T12:24:27;33.20;;;14.23;;
55037;SDS011;40937;53.594;10.034;2022-10-29T12:27:06;27.83;;;12.82;;
55037;SDS011;40937;53.594;10.034;2022-10-29T12:29:39;28.08;;;12.40;;
55037;SDS011;40937;53.594;10.034;2022-10-29T12:32:13;25.50;;;12.68;;
55037;SDS011;40937;53.594;10.034;2022-10-29T12:34:47;20.73;;;12.30;;
55037;SDS011;40937;53.594;10.034;2022-10-29T12:37:19;27.10;;;11.63;;
55037;SDS011;40937;53.594;10.034;2022-10-29T12:39:53;23.90;;;13.27;;
55037;SDS011;40937;53.594;10.034;2022-10-29T12:42:26;23.67;;;12.52;;
55037;SDS011;40937;53.594;10.034;2022-10-29T12:44:59;33.13;;;13.40;;
55037;SDS011;40937;53.594;10.034;2022-10-29T12:47:37;24.73;;;13.07;;
55037;SDS011;40937;53.594;10.034;2022-10-29T12:50:16;24.42;;;12.27;;
55037;SDS011;40937;53.594;10.034;2022-10-29T12:52:54;19.33;;;8.93;;
55037;SDS011;40937;53.594;10.034;2022-10-29T12:55:25;18.95;;;10.38;;
55037;SDS011;40937;53.594;10.034;2022-10-29T12:57:54;23.92;;;10.68;;
55037;SDS011;40937;53.594;10.034;2022-10-29T13:00:31;24.70;;;10.93;;
55037;SDS011;40937;53.594;10.034;2022-10-29T13:02:58;19.98;;;10.32;;
55037;SDS011;40937;53.594;10.034;2022-10-29T13:05:36;25.02;;;11.18;;
55037;SDS011;40937;53.594;10.034;2022-10-29T13:08:09;28.17;;;11.40;;
55037;SDS011;40937;53.594;10.034;2022-10-29T13:10:52;22.17;;;10.65;;
55037;SDS011;40937;53.594;10.034;2022-10-29T13:13:23;28.55;;;11.48;;
55037;SDS011;40937;53.594;10.034;2022-10-29T13:16:14;27.02;;;9.45;;
55037;SDS011;40937;53.594;10.034;2022-10-29T13:18:50;27.85;;;10.55;;
55037;SDS011;40937;53.594;10.034;2022-10-29T13:24:19;22.05;;;10.43;;
55037;SDS011;40937;53.594;10.034;2022-10-29T13:26:51;25.58;;;10.38;;
55037;SDS011;40937;53.594;10.034;2022-10-29T13:32:06;23.73;;;9.27;;
55037;SDS011;40937;53.594;10.034;2022-10-29T13:34:49;22.15;;;9.60;;
55037;SDS011;40937;53.594;10.034;2022-10-29T13:43:33;23.70;;;9.63;;
55037;SDS011;40937;53.594;10.034;2022-10-29T13:46:03;21.25;;;9.18;;
55037;SDS011;40937;53.594;10.034;2022-10-29T13:48:47;18.83;;;9.10;;
55037;SDS011;40937;53.594;10.034;2022-10-29T13:51:18;21.65;;;8.95;;
55037;SDS011;40937;53.594;10.034;2022-10-29T13:53:50;22.30;;;8.20;;
55037;SDS011;40937;53.594;10.034;2022-10-29T13:56:23;22.60;;;8.45;;
55037;SDS011;40937;53.594;10.034;2022-10-29T13:58:55;18.13;;;8.15;;
55037;SDS011;40937;53.594;10.034;2022-10-29T14:01:26;19.42;;;7.85;;
55037;SDS011;40937;53.594;10.034;2022-10-29T14:03:58;18.90;;;9.02;;
55037;SDS011;40937;53.594;10.034;2022-10-29T14:06:32;19.38;;;8.18;;
55037;SDS011;40937;53.594;10.034;2022-10-29T14:09:06;21.73;;;8.43;;
55037;SDS011;40937;53.594;10.034;2022-10-29T14:11:41;21.73;;;8.60;;
55037;SDS011;40937;53.594;10.034;2022-10-29T14:14:19;18.30;;;7.93;;
55037;SDS011;40937;53.594;10.034;2022-10-29T14:19:36;17.58;;;7.28;;
55037;SDS011;40937;53.594;10.034;2022-10-29T14:22:13;22.90;;;8.02;;
55037;SDS011;40937;53.594;10.034;2022-10-29T14:24:40;17.67;;;7.88;;
55037;SDS011;40937;53.594;10.034;2022-10-29T14:27:07;19.30;;;9.45;;
55037;SDS011;40937;53.594;10.034;2022-10-29T14:29:34;24.70;;;9.27;;
55037;SDS011;40937;53.594;10.034;2022-10-29T14:32:04;29.17;;;9.43;;
55037;SDS011;40937;53.594;10.034;2022-10-29T14:34:32;18.35;;;8.10;;
55037;SDS011;40937;53.594;10.034;2022-10-29T14:36:59;21.45;;;9.27;;
55037;SDS011;40937;53.594;10.034;2022-10-29T14:39:29;27.23;;;11.15;;
55037;SDS011;40937;53.594;10.034;2022-10-29T14:41:59;29.52;;;10.75;;
55037;SDS011;40937;53.594;10.034;2022-10-29T14:44:26;25.58;;;11.82;;
55037;SDS011;40937;53.594;10.034;2022-10-29T14:46:57;17.92;;;10.60;;
55037;SDS011;40937;53.594;10.034;2022-10-29T14:49:29;28.27;;;10.68;;
55037;SDS011;40937;53.594;10.034;2022-10-29T14:51:59;20.75;;;10.15;;
55037;SDS011;40937;53.594;10.034;2022-10-29T14:54:29;25.75;;;10.60;;
55037;SDS011;40937;53.594;10.034;2022-10-29T14:56:59;20.60;;;10.30;;
55037;SDS011;40937;53.594;10.034;2022-10-29T14:59:30;26.13;;;11.55;;
55037;SDS011;40937;53.594;10.034;2022-10-29T15:01:59;23.58;;;11.90;;
55037;SDS011;40937;53.594;10.034;2022-10-29T15:04:29;30.92;;;11.30;;
55037;SDS011;40937;53.594;10.034;2022-10-29T15:09:41;29.70;;;12.00;;
55037;SDS011;40937;53.594;10.034;2022-10-29T15:12:16;26.02;;;12.20;;
55037;SDS011;40937;53.594;10.034;2022-10-29T15:14:45;22.35;;;12.00;;